Dades meteomassalio
Diari Summary for Febrer 7, 2018 Units:  English    Metric   Both
« Previous Day
Next Day »
Diari Semanal Mensual Anual Personalitzat
  Maxima: Minima: Mijana:
Temperatura: TemperatureC °F 0.6 °F 3.2 °F
Rosada: DewpointC °F -3.4 °F -1.6 °F
Humitat: Humidity % 58 % 71 %
Velocitat del vent: WindSpeedKMH mph 16.7 mph 26.4 mph
Racha vent: WindSpeedGustKMH mph - -
Vent:- - NW
Pressio: PressurehPa in 1014.1 in -
Pluja: 0.0 in    
Historical Graphs
 
 
Tabular Data for Febrer 7, 2018
Time Temperature Dew Point Pressure Wind Wind Speed Wind Gust Humidity Rainfall Rate (Hourly) solar Conditions
TemperatureC °F DewpointC °F PressurehPa in Calm     Humidity % HourlyPrecipMM in SolarRadiationWatts/m^2 W/m2 Conditions
00:00 1.7 °F -1.9 °F 1014.4 in WNW 17.7 mph 17.7 mph 77 % 0.0 in 0.0 W/m2 RA
00:05 1.7 °F -2.1 °F 1014.4 in WNW 18.5 mph 18.5 mph 76 % 0.0 in 0.0 W/m2 CLR
00:10 1.7 °F -2.1 °F 1014.4 in NW 22.2 mph 22.2 mph 76 % 0.0 in 0.0 W/m2 CLR
00:15 1.7 °F -2.1 °F 1014.4 in WNW 16.7 mph 16.7 mph 76 % 0.0 in 0.0 W/m2 CLR
00:20 1.7 °F -1.9 °F 1014.4 in WNW 24.1 mph 24.1 mph 77 % 0.0 in 0.0 W/m2 CLR
00:25 1.7 °F -1.9 °F 1014.4 in West 29.6 mph 29.6 mph 77 % 0.0 in 0.0 W/m2 CLR
00:30 1.7 °F -1.9 °F 1014.4 in West 22.5 mph 22.5 mph 77 % 0.0 in 0.0 W/m2 CLR
00:35 1.7 °F -1.8 °F 1014.4 in West 18.5 mph 18.5 mph 78 % 0.0 in 0.0 W/m2 CLR
00:40 1.7 °F -1.8 °F 1014.4 in WNW 25.9 mph 25.9 mph 78 % 0.0 in 0.0 W/m2 CLR
00:45 1.7 °F -1.9 °F 1014.4 in WNW 22.2 mph 22.2 mph 77 % 0.0 in 0.0 W/m2 CLR
00:50 1.7 °F -1.8 °F 1014.4 in WNW 24.1 mph 24.1 mph 78 % 0.0 in 0.0 W/m2 CLR
00:55 1.7 °F -1.8 °F 1014.4 in WNW 20.9 mph 20.9 mph 78 % 0.0 in 0.0 W/m2 CLR
01:00 1.7 °F -1.8 °F 1014.4 in West 27.8 mph 27.8 mph 78 % 0.0 in 0.0 W/m2 CLR
01:05 1.7 °F -1.8 °F 1014.4 in WNW 25.9 mph 25.9 mph 78 % 0.0 in 0.0 W/m2 CLR
01:10 1.7 °F -1.8 °F 1014.4 in WNW 20.4 mph 20.4 mph 78 % 0.0 in 0.0 W/m2 CLR
01:15 1.7 °F -1.6 °F 1014.4 in WNW 25.9 mph 25.9 mph 79 % 0.0 in 0.0 W/m2 CLR
01:20 1.7 °F -1.6 °F 1014.4 in NW 22.5 mph 22.5 mph 79 % 0.0 in 0.0 W/m2 CLR
01:25 1.7 °F -1.6 °F 1014.4 in NW 25.9 mph 25.9 mph 79 % 0.0 in 0.0 W/m2 CLR
01:30 1.7 °F -1.8 °F 1014.4 in NW 25.9 mph 25.9 mph 78 % 0.0 in 0.0 W/m2 CLR
01:35 1.7 °F -1.8 °F 1014.4 in WNW 25.7 mph 25.7 mph 78 % 0.0 in 0.0 W/m2 CLR
01:40 1.7 °F -1.6 °F 1014.4 in WNW 25.7 mph 25.7 mph 79 % 0.0 in 0.0 W/m2 CLR
01:45 1.7 °F -1.8 °F 1014.1 in NW 31.5 mph 31.5 mph 78 % 0.0 in 0.0 W/m2 CLR
01:50 1.7 °F -1.8 °F 1014.4 in NW 29.6 mph 29.6 mph 78 % 0.0 in 0.0 W/m2 CLR
01:55 1.7 °F -1.8 °F 1014.4 in NW 29.6 mph 29.6 mph 78 % 0.0 in 0.0 W/m2 CLR
02:00 1.7 °F -1.8 °F 1014.4 in WNW 24.1 mph 24.1 mph 78 % 0.0 in 0.0 W/m2 CLR
02:05 1.7 °F -1.8 °F 1014.4 in NW 22.2 mph 22.2 mph 78 % 0.0 in 0.0 W/m2 CLR
02:11 1.7 °F -1.6 °F 1014.4 in NW 20.9 mph 20.9 mph 79 % 0.0 in 0.0 W/m2 CLR
02:16 1.7 °F -1.6 °F 1014.4 in WNW 22.2 mph 22.2 mph 79 % 0.0 in 0.0 W/m2 CLR
02:21 1.7 °F -1.6 °F 1014.4 in NW 25.9 mph 25.9 mph 79 % 0.0 in 0.0 W/m2 CLR
02:26 1.7 °F -1.6 °F 1014.4 in WNW 25.9 mph 25.9 mph 79 % 0.0 in 0.0 W/m2 CLR
02:31 1.7 °F -1.6 °F 1014.4 in NW 20.9 mph 20.9 mph 79 % 0.0 in 0.0 W/m2 CLR
02:36 1.7 °F -1.6 °F 1014.4 in WNW 25.9 mph 25.9 mph 79 % 0.0 in 0.0 W/m2 CLR
02:41 1.7 °F -1.8 °F 1014.4 in NW 31.5 mph 31.5 mph 78 % 0.0 in 0.0 W/m2 CLR
02:46 1.7 °F -1.8 °F 1014.4 in NW 20.9 mph 20.9 mph 78 % 0.0 in 0.0 W/m2 CLR
02:51 1.7 °F -1.8 °F 1014.4 in NW 22.2 mph 22.2 mph 78 % 0.0 in 0.0 W/m2 CLR
02:56 1.7 °F -1.8 °F 1014.4 in WNW 18.5 mph 18.5 mph 78 % 0.0 in 0.0 W/m2 CLR
03:01 1.7 °F -1.6 °F 1014.4 in West 25.9 mph 25.9 mph 79 % 0.0 in 0.0 W/m2 CLR
03:06 1.7 °F -1.8 °F 1014.8 in NW 20.4 mph 20.4 mph 78 % 0.0 in 0.0 W/m2 CLR
03:11 1.7 °F -1.8 °F 1014.8 in NW 18.5 mph 18.5 mph 78 % 0.0 in 0.0 W/m2 CLR
03:16 1.1 °F -2.3 °F 1014.8 in WNW 22.2 mph 22.2 mph 78 % 0.0 in 0.0 W/m2 CLR
03:21 1.7 °F -1.8 °F 1014.8 in WNW 18.5 mph 18.5 mph 78 % 0.0 in 0.0 W/m2 CLR
03:26 1.7 °F -1.8 °F 1014.8 in NW 18.5 mph 18.5 mph 78 % 0.0 in 0.0 W/m2 CLR
03:31 1.1 °F -2.3 °F 1014.8 in WNW 22.2 mph 22.2 mph 78 % 0.0 in 0.0 W/m2 CLR
03:36 1.7 °F -1.8 °F 1014.8 in WNW 20.4 mph 20.4 mph 78 % 0.0 in 0.0 W/m2 CLR
03:41 1.1 °F -2.3 °F 1014.8 in NW 22.2 mph 22.2 mph 78 % 0.0 in 0.0 W/m2 CLR
03:46 1.1 °F -2.3 °F 1014.8 in WNW 22.2 mph 22.2 mph 78 % 0.0 in 0.0 W/m2 CLR
03:51 1.1 °F -2.3 °F 1014.8 in WNW 16.7 mph 16.7 mph 78 % 0.0 in 0.0 W/m2 CLR
03:56 1.1 °F -2.5 °F 1014.8 in WNW 22.5 mph 22.5 mph 77 % 0.0 in 0.0 W/m2 CLR
04:01 1.1 °F -2.5 °F 1014.8 in WNW 27.8 mph 27.8 mph 77 % 0.0 in 0.0 W/m2 CLR
04:06 1.7 °F -1.8 °F 1014.8 in WNW 25.9 mph 25.9 mph 78 % 0.0 in 0.0 W/m2 CLR
04:11 1.7 °F -1.9 °F 1014.8 in NW 25.7 mph 25.7 mph 77 % 0.0 in 0.0 W/m2 CLR
04:16 1.7 °F -1.9 °F 1014.8 in WNW 27.8 mph 27.8 mph 77 % 0.0 in 0.0 W/m2 CLR
04:21 1.7 °F -1.9 °F 1014.4 in NW 24.1 mph 24.1 mph 77 % 0.0 in 0.0 W/m2 CLR
04:26 1.7 °F -1.9 °F 1014.8 in WNW 22.2 mph 22.2 mph 77 % 0.0 in 0.0 W/m2 CLR
04:31 1.7 °F -1.9 °F 1014.4 in NW 22.2 mph 22.2 mph 77 % 0.0 in 0.0 W/m2 CLR
04:36 1.7 °F -1.9 °F 1014.8 in WNW 18.5 mph 18.5 mph 77 % 0.0 in 0.0 W/m2 CLR
04:41 1.7 °F -1.9 °F 1014.8 in WNW 27.8 mph 27.8 mph 77 % 0.0 in 0.0 W/m2 CLR
04:46 1.1 °F -2.5 °F 1014.8 in WNW 18.5 mph 18.5 mph 77 % 0.0 in 0.0 W/m2 CLR
04:51 1.1 °F -2.5 °F 1014.8 in WNW 24.1 mph 24.1 mph 77 % 0.0 in 0.0 W/m2 CLR
04:56 1.1 °F -2.5 °F 1014.8 in NW 24.1 mph 24.1 mph 77 % 0.0 in 0.0 W/m2 CLR
05:01 1.7 °F -1.9 °F 1014.8 in NW 24.1 mph 24.1 mph 77 % 0.0 in 0.0 W/m2 CLR
05:06 1.7 °F -1.9 °F 1014.8 in NW 22.2 mph 22.2 mph 77 % 0.0 in 0.0 W/m2 CLR
05:11 1.7 °F -1.9 °F 1014.8 in WNW 20.4 mph 20.4 mph 77 % 0.0 in 0.0 W/m2 CLR
05:16 1.7 °F -1.9 °F 1014.8 in NW 18.5 mph 18.5 mph 77 % 0.0 in 0.0 W/m2 CLR
05:21 1.7 °F -1.9 °F 1014.8 in NW 25.9 mph 25.9 mph 77 % 0.0 in 0.0 W/m2 CLR
05:26 1.7 °F -1.9 °F 1014.8 in NNW 18.5 mph 18.5 mph 77 % 0.0 in 0.0 W/m2 CLR
05:31 1.7 °F -1.9 °F 1014.8 in NW 20.4 mph 20.4 mph 77 % 0.0 in 0.0 W/m2 CLR
05:36 1.7 °F -1.9 °F 1014.8 in NW 22.2 mph 22.2 mph 77 % 0.0 in 0.0 W/m2 CLR
05:41 1.7 °F -1.9 °F 1014.8 in NW 20.9 mph 20.9 mph 77 % 0.0 in 0.0 W/m2 CLR
05:46 1.7 °F -1.9 °F 1014.8 in NW 27.8 mph 27.8 mph 77 % 0.0 in 0.0 W/m2 CLR
05:51 1.7 °F -1.9 °F 1014.8 in WNW 27.8 mph 27.8 mph 77 % 0.0 in 0.0 W/m2 CLR
05:56 1.7 °F -1.9 °F 1014.8 in WNW 18.5 mph 18.5 mph 77 % 0.0 in 0.0 W/m2 CLR
06:01 1.7 °F -1.9 °F 1015.1 in NW 18.5 mph 18.5 mph 77 % 0.0 in 0.0 W/m2 CLR
06:06 1.1 °F -2.5 °F 1015.1 in WNW 25.9 mph 25.9 mph 77 % 0.0 in 0.0 W/m2 CLR
06:11 1.1 °F -2.7 °F 1014.8 in WNW 31.5 mph 31.5 mph 76 % 0.0 in 0.0 W/m2 CLR
06:16 1.7 °F -2.1 °F 1014.8 in WNW 31.5 mph 31.5 mph 76 % 0.0 in 0.0 W/m2 CLR
06:21 1.7 °F -2.1 °F 1014.8 in NW 27.8 mph 27.8 mph 76 % 0.0 in 0.0 W/m2 CLR
06:26 1.7 °F -2.1 °F 1015.1 in NW 24.1 mph 24.1 mph 76 % 0.0 in 0.0 W/m2 CLR
06:31 1.7 °F -2.1 °F 1015.1 in WNW 29.6 mph 29.6 mph 76 % 0.0 in 0.0 W/m2 CLR
06:36 1.7 °F -2.1 °F 1015.1 in NW 31.5 mph 31.5 mph 76 % 0.0 in 0.0 W/m2 CLR
06:41 1.7 °F -1.9 °F 1015.1 in NW 31.5 mph 31.5 mph 77 % 0.0 in 0.0 W/m2 CLR
06:46 1.7 °F -1.9 °F 1015.1 in NW 24.1 mph 24.1 mph 77 % 0.0 in 0.0 W/m2 CLR
06:51 1.7 °F -1.9 °F 1015.1 in WNW 27.8 mph 27.8 mph 77 % 0.0 in 0.0 W/m2 CLR
06:56 1.7 °F -1.9 °F 1015.1 in WNW 31.5 mph 31.5 mph 77 % 0.0 in 0.0 W/m2 CLR
07:01 1.7 °F -1.8 °F 1015.1 in WNW 29.6 mph 29.6 mph 78 % 0.0 in 0.0 W/m2 CLR
07:06 1.7 °F -1.8 °F 1015.1 in NW 18.5 mph 18.5 mph 78 % 0.0 in 0.0 W/m2 CLR
07:11 1.7 °F -1.8 °F 1015.1 in WNW 27.8 mph 27.8 mph 78 % 0.0 in 0.0 W/m2 CLR
07:16 1.1 °F -2.3 °F 1015.5 in NW 24.1 mph 24.1 mph 78 % 0.0 in 0.0 W/m2 CLR
07:21 1.1 °F -2.3 °F 1015.5 in WNW 29.6 mph 29.6 mph 78 % 0.0 in 0.0 W/m2 CLR
07:26 1.1 °F -2.3 °F 1015.5 in NW 31.5 mph 31.5 mph 78 % 0.0 in 0.0 W/m2 CLR
07:31 1.1 °F -2.1 °F 1015.5 in NW 29.6 mph 29.6 mph 79 % 0.0 in 0.0 W/m2 CLR
07:36 1.1 °F -2.1 °F 1015.5 in WNW 24.1 mph 24.1 mph 79 % 0.0 in 0.0 W/m2 CLR
07:41 1.1 °F -2.3 °F 1015.5 in NW 29.6 mph 29.6 mph 78 % 0.0 in 0.0 W/m2 CLR
07:46 1.1 °F -2.3 °F 1015.8 in WNW 18.5 mph 18.5 mph 78 % 0.0 in 0.0 W/m2 CLR
07:51 0.6 °F -2.7 °F 1015.8 in WNW 18.5 mph 18.5 mph 79 % 0.0 in 0.0 W/m2 CLR
07:56 0.6 °F -2.7 °F 1015.8 in WNW 17.7 mph 17.7 mph 79 % 0.0 in 0.0 W/m2 CLR
08:01 0.6 °F -2.7 °F 1015.8 in WNW 22.2 mph 22.2 mph 79 % 0.0 in 0.0 W/m2 OVC
08:06 0.6 °F -2.5 °F 1015.8 in WNW 16.7 mph 16.7 mph 80 % 0.0 in 5.0 W/m2 OVC
08:11 0.6 °F -2.7 °F 1016.1 in NW 31.5 mph 31.5 mph 79 % 0.0 in 7.0 W/m2 BKN
08:16 0.6 °F -2.7 °F 1016.1 in WNW 16.7 mph 16.7 mph 79 % 0.0 in 11.0 W/m2 BKN
08:21 0.6 °F -2.8 °F 1016.1 in WNW 24.1 mph 24.1 mph 78 % 0.0 in 14.0 W/m2 BKN
08:26 0.6 °F -3.0 °F 1016.1 in NW 18.5 mph 18.5 mph 77 % 0.0 in 18.0 W/m2 BKN
08:31 0.6 °F -3.0 °F 1016.1 in WNW 24.1 mph 24.1 mph 77 % 0.0 in 19.0 W/m2 BKN
08:36 1.1 °F -2.5 °F 1016.1 in WNW 20.9 mph 20.9 mph 77 % 0.0 in 25.0 W/m2 BKN
08:41 1.1 °F -2.7 °F 1016.1 in WNW 22.2 mph 22.2 mph 76 % 0.0 in 33.0 W/m2 BKN
08:46 1.1 °F -2.7 °F 1016.1 in NW 24.1 mph 24.1 mph 76 % 0.0 in 40.0 W/m2 BKN
08:51 1.1 °F -2.7 °F 1016.1 in WNW 22.5 mph 22.5 mph 76 % 0.0 in 58.0 W/m2 SCT
08:56 1.7 °F -2.3 °F 1016.5 in WNW 22.2 mph 22.2 mph 75 % 0.0 in 69.0 W/m2 FEW
09:01 1.7 °F -2.3 °F 1016.5 in NW 24.1 mph 24.1 mph 75 % 0.0 in 83.0 W/m2 FEW
09:06 1.7 °F -2.3 °F 1016.5 in NW 20.4 mph 20.4 mph 75 % 0.0 in 100.0 W/m2 FEW
09:11 1.7 °F -2.3 °F 1016.5 in NW 22.2 mph 22.2 mph 75 % 0.0 in 116.0 W/m2 CLR
09:16 1.7 °F -2.3 °F 1016.5 in NW 29.6 mph 29.6 mph 75 % 0.0 in 123.0 W/m2 CLR
09:21 2.2 °F -1.8 °F 1016.5 in NW 29.6 mph 29.6 mph 75 % 0.0 in 148.0 W/m2 CLR
09:26 2.2 °F -1.9 °F 1016.5 in West 25.9 mph 25.9 mph 74 % 0.0 in 165.0 W/m2 CLR
09:31 2.2 °F -2.1 °F 1016.8 in NW 27.8 mph 27.8 mph 73 % 0.0 in 172.0 W/m2 CLR
09:36 2.2 °F -1.9 °F 1016.8 in NW 31.5 mph 31.5 mph 74 % 0.0 in 186.0 W/m2 CLR
09:41 2.8 °F -1.8 °F 1016.8 in NNW 24.1 mph 24.1 mph 72 % 0.0 in 220.0 W/m2 CLR
09:46 2.8 °F -1.6 °F 1016.8 in NW 22.2 mph 22.2 mph 73 % 0.0 in 236.0 W/m2 CLR
09:51 2.8 °F -1.6 °F 1016.8 in WNW 18.5 mph 18.5 mph 73 % 0.0 in 253.0 W/m2 CLR
09:56 2.8 °F -1.6 °F 1016.8 in NNW 29.6 mph 29.6 mph 73 % 0.0 in 269.0 W/m2 CLR
10:01 2.8 °F -1.8 °F 1017.2 in NNW 29.6 mph 29.6 mph 72 % 0.0 in 283.0 W/m2 CLR
10:06 3.3 °F -1.1 °F 1017.2 in NW 30.6 mph 30.6 mph 73 % 0.0 in 295.0 W/m2 CLR
10:11 3.3 °F -1.2 °F 1017.2 in NNW 37.0 mph 37.0 mph 72 % 0.0 in 308.0 W/m2 CLR
10:16 3.3 °F -1.2 °F 1017.2 in NW 31.5 mph 31.5 mph 72 % 0.0 in 322.0 W/m2 CLR
10:21 3.3 °F -1.4 °F 1017.5 in NW 35.2 mph 35.2 mph 71 % 0.0 in 332.0 W/m2 CLR
10:26 3.3 °F -1.4 °F 1017.2 in NW 42.6 mph 42.6 mph 71 % 0.0 in 350.0 W/m2 CLR
10:31 3.9 °F -0.7 °F 1017.5 in NNW 35.2 mph 35.2 mph 72 % 0.0 in 362.0 W/m2 CLR
10:36 3.9 °F -0.7 °F 1017.5 in NW 33.3 mph 33.3 mph 72 % 0.0 in 373.0 W/m2 CLR
10:42 3.9 °F -0.9 °F 1017.5 in North 35.2 mph 35.2 mph 71 % 0.0 in 388.0 W/m2 CLR
10:47 3.9 °F -1.1 °F 1017.8 in NNW 38.9 mph 38.9 mph 70 % 0.0 in 401.0 W/m2 CLR
10:52 4.4 °F -0.6 °F 1017.8 in NNW 46.3 mph 46.3 mph 70 % 0.0 in 413.0 W/m2 CLR
10:57 4.4 °F -0.6 °F 1017.8 in NNW 31.5 mph 31.5 mph 70 % 0.0 in 425.0 W/m2 CLR
10:58 4.4 °F -0.3 °F 1017.8 in NW 29.6 mph 29.6 mph 71 % 0.0 in 425.0 W/m2 CLR
11:03 4.4 °F -0.8 °F 1017.8 in NW 42.6 mph 42.6 mph 69 % 0.0 in 436.0 W/m2 CLR
11:08 4.4 °F -0.6 °F 1018.2 in NNW 42.6 mph 42.6 mph 70 % 0.0 in 443.0 W/m2 CLR
11:13 4.4 °F -0.8 °F 1018.2 in NNW 33.3 mph 33.3 mph 69 % 0.0 in 457.0 W/m2 CLR
11:18 4.4 °F -0.8 °F 1018.2 in North 37.0 mph 37.0 mph 69 % 0.0 in 466.0 W/m2 CLR
11:23 4.4 °F -0.9 °F 1018.2 in NW 29.6 mph 29.6 mph 68 % 0.0 in 482.0 W/m2 CLR
11:28 4.4 °F -0.8 °F 1018.2 in NNW 29.0 mph 29.0 mph 69 % 0.0 in 487.0 W/m2 CLR
11:33 5.0 °F -0.2 °F 1018.2 in NNW 27.8 mph 27.8 mph 69 % 0.0 in 473.0 W/m2 CLR
11:38 5.0 °F -0.6 °F 1018.5 in NNW 40.7 mph 40.7 mph 67 % 0.0 in 487.0 W/m2 CLR
11:43 5.0 °F -0.2 °F 1018.5 in NW 24.1 mph 24.1 mph 69 % 0.0 in 490.0 W/m2 CLR
11:48 5.0 °F -0.6 °F 1018.5 in NW 32.2 mph 32.2 mph 67 % 0.0 in 482.0 W/m2 CLR
11:53 5.6 °F 0.1 °F 1018.5 in North 31.5 mph 31.5 mph 68 % 0.0 in 552.0 W/m2 CLR
11:58 5.6 °F -0.1 °F 1018.5 in NW 22.2 mph 22.2 mph 67 % 0.0 in 557.0 W/m2 CLR
12:03 6.1 °F 0.7 °F 1018.5 in NNW 25.9 mph 25.9 mph 68 % 0.0 in 541.0 W/m2 CLR
12:08 6.1 °F 0.0 °F 1018.8 in NW 35.2 mph 35.2 mph 65 % 0.0 in 568.0 W/m2 CLR
12:13 5.6 °F -0.3 °F 1018.8 in NW 31.5 mph 31.5 mph 66 % 0.0 in 548.0 W/m2 CLR
12:18 5.6 °F -0.5 °F 1018.8 in North 37.0 mph 37.0 mph 65 % 0.0 in 540.0 W/m2 CLR
12:23 6.1 °F 0.4 °F 1018.5 in North 29.6 mph 29.6 mph 67 % 0.0 in 545.0 W/m2 CLR
12:28 6.1 °F 0.7 °F 1018.5 in NW 25.9 mph 25.9 mph 68 % 0.0 in 559.0 W/m2 CLR
12:33 6.1 °F 0.2 °F 1018.5 in NNW 37.0 mph 37.0 mph 66 % 0.0 in 570.0 W/m2 CLR
12:38 6.1 °F 0.2 °F 1018.5 in NW 31.5 mph 31.5 mph 66 % 0.0 in 577.0 W/m2 CLR
12:43 6.7 °F 0.9 °F 1018.5 in NW 29.0 mph 29.0 mph 67 % 0.0 in 577.0 W/m2 CLR
12:48 6.7 °F 0.6 °F 1018.5 in NW 31.5 mph 31.5 mph 65 % 0.0 in 606.0 W/m2 CLR
12:53 6.7 °F 0.8 °F 1018.5 in North 25.9 mph 25.9 mph 66 % 0.0 in 594.0 W/m2 CLR
12:58 6.7 °F 0.8 °F 1018.5 in North 31.5 mph 31.5 mph 66 % 0.0 in 617.0 W/m2 CLR
13:03 6.7 °F 0.1 °F 1018.5 in North 40.7 mph 40.7 mph 63 % 0.0 in 675.0 W/m2 CLR
13:08 6.7 °F 0.3 °F 1018.5 in North 31.5 mph 31.5 mph 64 % 0.0 in 615.0 W/m2 CLR
13:13 6.7 °F 0.3 °F 1018.5 in North 27.8 mph 27.8 mph 64 % 0.0 in 640.0 W/m2 CLR
13:19 6.7 °F 0.3 °F 1018.5 in NNW 31.5 mph 31.5 mph 64 % 0.0 in 153.0 W/m2 CLR
13:24 6.7 °F 0.6 °F 1018.5 in North 33.3 mph 33.3 mph 65 % 0.0 in 661.0 W/m2 CLR
13:29 7.2 °F 0.8 °F 1018.5 in North 37.0 mph 37.0 mph 64 % 0.0 in 664.0 W/m2 CLR
13:34 7.2 °F 0.4 °F 1018.5 in North 38.9 mph 38.9 mph 62 % 0.0 in 682.0 W/m2 CLR
13:39 7.2 °F 0.8 °F 1018.5 in NNE 29.6 mph 29.6 mph 64 % 0.0 in 684.0 W/m2 CLR
13:44 7.8 °F 1.2 °F 1018.2 in NW 31.5 mph 31.5 mph 63 % 0.0 in 724.0 W/m2 CLR
13:49 7.8 °F 1.4 °F 1018.5 in North 27.8 mph 27.8 mph 64 % 0.0 in 684.0 W/m2 CLR
13:54 7.8 °F 1.2 °F 1018.5 in North 35.2 mph 35.2 mph 63 % 0.0 in 255.0 W/m2 CLR
13:59 7.2 °F 0.7 °F 1018.5 in North 37.0 mph 37.0 mph 63 % 0.0 in 682.0 W/m2 CLR
14:04 7.2 °F 0.2 °F 1018.5 in North 42.6 mph 42.6 mph 61 % 0.0 in 664.0 W/m2 CLR
14:09 7.2 °F 0.7 °F 1018.5 in NNW 37.0 mph 37.0 mph 63 % 0.0 in 661.0 W/m2 CLR
14:14 6.7 °F 0.3 °F 1018.5 in North 27.4 mph 27.4 mph 64 % 0.0 in 206.0 W/m2 CLR
14:19 6.7 °F 0.3 °F 1018.5 in NW 31.5 mph 31.5 mph 64 % 0.0 in 613.0 W/m2 CLR
14:24 7.2 °F 0.7 °F 1018.5 in NNW 37.0 mph 37.0 mph 63 % 0.0 in 605.0 W/m2 CLR
14:29 6.7 °F -0.1 °F 1018.2 in NW 29.6 mph 29.6 mph 62 % 0.0 in 206.0 W/m2 CLR
14:34 6.7 °F -0.1 °F 1018.2 in NNW 31.5 mph 31.5 mph 62 % 0.0 in 148.0 W/m2 CLR
14:39 6.7 °F 0.1 °F 1018.5 in NNW 24.1 mph 24.1 mph 63 % 0.0 in 162.0 W/m2 CLR
14:44 6.7 °F 0.1 °F 1018.2 in NW 33.3 mph 33.3 mph 63 % 0.0 in 165.0 W/m2 CLR
14:49 6.1 °F -0.2 °F 1018.2 in NW 32.2 mph 32.2 mph 64 % 0.0 in 176.0 W/m2 CLR
14:54 6.1 °F -0.8 °F 1018.2 in NNW 37.0 mph 37.0 mph 61 % 0.0 in 135.0 W/m2 CLR
14:59 6.7 °F 0.1 °F 1018.2 in North 32.2 mph 32.2 mph 63 % 0.0 in 554.0 W/m2 CLR
15:04 6.7 °F 0.1 °F 1018.2 in NNW 27.8 mph 27.8 mph 63 % 0.0 in 197.0 W/m2 CLR
15:09 6.7 °F 0.1 °F 1018.2 in NNW 33.3 mph 33.3 mph 63 % 0.0 in 104.0 W/m2 CLR
15:14 6.1 °F -0.4 °F 1018.2 in NW 31.5 mph 31.5 mph 63 % 0.0 in 149.0 W/m2 CLR
15:19 6.1 °F -0.6 °F 1017.8 in North 29.6 mph 29.6 mph 62 % 0.0 in 134.0 W/m2 CLR
15:24 6.7 °F 0.1 °F 1018.2 in North 33.3 mph 33.3 mph 63 % 0.0 in 123.0 W/m2 CLR
15:29 6.1 °F -0.6 °F 1018.2 in NNW 35.2 mph 35.2 mph 62 % 0.0 in 171.0 W/m2 CLR
15:34 6.1 °F -0.6 °F 1017.8 in NNW 18.5 mph 18.5 mph 62 % 0.0 in 146.0 W/m2 CLR
15:39 6.7 °F 0.3 °F 1018.2 in NW 24.1 mph 24.1 mph 64 % 0.0 in 144.0 W/m2 CLR
15:44 6.1 °F -0.4 °F 1018.2 in NW 27.8 mph 27.8 mph 63 % 0.0 in 135.0 W/m2 CLR
15:49 6.1 °F -0.6 °F 1018.2 in NNW 22.2 mph 22.2 mph 62 % 0.0 in 100.0 W/m2 CLR
15:54 6.1 °F -0.2 °F 1018.2 in NW 25.7 mph 25.7 mph 64 % 0.0 in 139.0 W/m2 CLR
15:59 6.1 °F -0.6 °F 1018.2 in NW 31.5 mph 31.5 mph 62 % 0.0 in 70.0 W/m2 CLR
16:04 5.6 °F -1.4 °F 1018.2 in NNW 24.1 mph 24.1 mph 61 % 0.0 in 74.0 W/m2 FEW
16:09 6.1 °F -0.6 °F 1018.2 in NNW 29.6 mph 29.6 mph 62 % 0.0 in 359.0 W/m2 FEW
16:14 6.7 °F -0.3 °F 1018.2 in North 38.6 mph 38.6 mph 61 % 0.0 in 325.0 W/m2 CLR
16:19 6.7 °F -0.6 °F 1018.2 in NNW 35.4 mph 35.4 mph 60 % 0.0 in 237.0 W/m2 CLR
16:24 6.7 °F -0.3 °F 1018.2 in North 37.0 mph 37.0 mph 61 % 0.0 in 315.0 W/m2 CLR
16:29 6.7 °F -0.6 °F 1018.2 in NW 35.2 mph 35.2 mph 60 % 0.0 in 294.0 W/m2 CLR
16:34 6.7 °F -0.6 °F 1018.2 in NNW 27.4 mph 27.4 mph 60 % 0.0 in 272.0 W/m2 CLR
16:39 6.1 °F -1.6 °F 1018.2 in NNW 29.6 mph 29.6 mph 58 % 0.0 in 244.0 W/m2 CLR
16:44 6.7 °F -1.0 °F 1018.2 in NW 20.4 mph 20.4 mph 58 % 0.0 in 237.0 W/m2 CLR
16:49 6.1 °F -1.6 °F 1018.2 in NNW 38.9 mph 38.9 mph 58 % 0.0 in 213.0 W/m2 CLR
16:54 6.1 °F -1.3 °F 1018.2 in NW 25.9 mph 25.9 mph 59 % 0.0 in 197.0 W/m2 CLR
16:59 6.1 °F -1.1 °F 1018.5 in NNW 31.5 mph 31.5 mph 60 % 0.0 in 186.0 W/m2 CLR
17:04 6.1 °F -1.1 °F 1018.5 in NW 29.6 mph 29.6 mph 60 % 0.0 in 149.0 W/m2 CLR
17:09 6.1 °F -0.8 °F 1018.5 in NW 27.8 mph 29.3 mph 61 % 0.0 in 149.0 W/m2 CLR
17:14 5.6 °F -1.4 °F 1018.5 in North 24.1 mph 24.1 mph 61 % 0.0 in 130.0 W/m2 CLR
17:19 5.6 °F -1.6 °F 1018.5 in NNW 31.5 mph 31.5 mph 60 % 0.0 in 116.0 W/m2 CLR
17:25 5.6 °F -1.2 °F 1018.5 in NNW 27.4 mph 27.4 mph 62 % 0.0 in 100.0 W/m2 CLR
17:30 5.6 °F -1.6 °F 1018.8 in NW 38.9 mph 38.9 mph 60 % 0.0 in 83.0 W/m2 CLR
17:35 5.0 °F -2.3 °F 1018.5 in NNW 38.9 mph 38.9 mph 59 % 0.0 in 67.0 W/m2 FEW
17:40 5.0 °F -1.9 °F 1018.8 in NNW 40.2 mph 40.2 mph 61 % 0.0 in 54.0 W/m2 SCT
17:45 5.0 °F -1.7 °F 1018.5 in NW 33.3 mph 33.3 mph 62 % 0.0 in 42.0 W/m2 BKN
17:50 5.0 °F -1.7 °F 1018.5 in NNW 33.3 mph 33.3 mph 62 % 0.0 in 32.0 W/m2 BKN
17:55 5.0 °F -1.4 °F 1018.8 in NNW 33.3 mph 33.3 mph 63 % 0.0 in 25.0 W/m2 BKN
18:00 4.4 °F -2.2 °F 1018.8 in NW 38.9 mph 38.9 mph 62 % 0.0 in 19.0 W/m2 BKN
18:05 4.4 °F -2.0 °F 1018.8 in NW 31.5 mph 31.5 mph 63 % 0.0 in 16.0 W/m2 BKN
18:10 4.4 °F -2.2 °F 1019.2 in NW 25.9 mph 25.9 mph 62 % 0.0 in 12.0 W/m2 BKN
18:15 4.4 °F -2.2 °F 1019.2 in WNW 24.1 mph 24.1 mph 62 % 0.0 in 11.0 W/m2 BKN
18:20 4.4 °F -2.0 °F 1019.2 in NNW 30.6 mph 30.6 mph 63 % 0.0 in 7.0 W/m2 BKN
18:25 3.9 °F -2.5 °F 1019.2 in NW 24.1 mph 24.1 mph 63 % 0.0 in 5.0 W/m2 OVC
18:30 3.9 °F -2.5 °F 1019.2 in NW 24.1 mph 24.1 mph 63 % 0.0 in 0.0 W/m2 OVC
18:35 3.9 °F -2.3 °F 1019.2 in NW 22.2 mph 22.2 mph 64 % 0.0 in 0.0 W/m2 CLR
18:40 3.9 °F -2.3 °F 1019.5 in WNW 25.9 mph 25.9 mph 64 % 0.0 in 0.0 W/m2 CLR
18:45 3.9 °F -2.3 °F 1019.5 in NW 24.1 mph 24.1 mph 64 % 0.0 in 0.0 W/m2 CLR
18:50 3.9 °F -2.3 °F 1019.5 in NW 31.5 mph 31.5 mph 64 % 0.0 in 0.0 W/m2 CLR
18:55 3.3 °F -2.8 °F 1019.5 in NW 22.2 mph 22.2 mph 64 % 0.0 in 0.0 W/m2 CLR
19:00 3.3 °F -2.8 °F 1019.9 in NNW 18.5 mph 18.5 mph 64 % 0.0 in 0.0 W/m2 CLR
19:05 3.3 °F -3.1 °F 1019.9 in NW 24.1 mph 24.1 mph 63 % 0.0 in 0.0 W/m2 CLR
19:11 3.3 °F -3.3 °F 1019.9 in NW 31.5 mph 31.5 mph 62 % 0.0 in 0.0 W/m2 CLR
19:16 3.3 °F -3.3 °F 1020.2 in NW 32.2 mph 32.2 mph 62 % 0.0 in 0.0 W/m2 CLR
19:21 3.3 °F -3.1 °F 1020.2 in NW 20.4 mph 20.4 mph 63 % 0.0 in 0.0 W/m2 CLR
19:26 3.3 °F -3.1 °F 1020.2 in NNW 25.9 mph 25.9 mph 63 % 0.0 in 0.0 W/m2 CLR
19:31 3.3 °F -3.1 °F 1020.2 in NNW 25.9 mph 25.9 mph 63 % 0.0 in 0.0 W/m2 CLR
19:36 3.3 °F -3.1 °F 1020.2 in NW 24.1 mph 24.1 mph 63 % 0.0 in 0.0 W/m2 CLR
19:41 3.3 °F -3.1 °F 1020.5 in WNW 18.5 mph 18.5 mph 63 % 0.0 in 0.0 W/m2 CLR
19:46 2.8 °F -3.4 °F 1020.2 in NW 27.8 mph 27.8 mph 64 % 0.0 in 0.0 W/m2 CLR
19:51 2.8 °F -3.4 °F 1020.5 in NW 31.5 mph 31.5 mph 64 % 0.0 in 0.0 W/m2 CLR
19:56 2.8 °F -3.4 °F 1020.5 in NW 20.9 mph 20.9 mph 64 % 0.0 in 0.0 W/m2 CLR
20:01 2.8 °F -3.2 °F 1020.2 in NW 22.5 mph 22.5 mph 65 % 0.0 in 0.0 W/m2 CLR
20:06 2.8 °F -3.4 °F 1020.2 in NW 24.1 mph 24.1 mph 64 % 0.0 in 0.0 W/m2 CLR
20:11 2.8 °F -3.2 °F 1020.2 in NW 22.2 mph 22.2 mph 65 % 0.0 in 0.0 W/m2 CLR
20:16 2.8 °F -2.9 °F 1020.2 in WNW 18.5 mph 18.5 mph 66 % 0.0 in 0.0 W/m2 CLR
20:21 2.8 °F -2.7 °F 1020.2 in WNW 22.2 mph 22.2 mph 67 % 0.0 in 0.0 W/m2 CLR
20:26 2.2 °F -3.3 °F 1020.5 in WNW 18.5 mph 18.5 mph 67 % 0.0 in 0.0 W/m2 CLR
20:31 2.2 °F -3.1 °F 1020.5 in NW 27.8 mph 27.8 mph 68 % 0.0 in 0.0 W/m2 CLR
20:36 2.2 °F -3.1 °F 1020.5 in NW 25.9 mph 25.9 mph 68 % 0.0 in 0.0 W/m2 CLR
20:41 2.2 °F -3.1 °F 1020.5 in WNW 24.1 mph 24.1 mph 68 % 0.0 in 0.0 W/m2 CLR
20:46 2.2 °F -2.9 °F 1020.5 in NW 20.4 mph 20.4 mph 69 % 0.0 in 0.0 W/m2 CLR
20:51 2.2 °F -2.9 °F 1020.5 in NW 31.5 mph 31.5 mph 69 % 0.0 in 0.0 W/m2 CLR
20:56 2.2 °F -2.9 °F 1020.5 in WNW 22.2 mph 22.2 mph 69 % 0.0 in 0.0 W/m2 CLR
21:01 2.2 °F -2.7 °F 1020.5 in WNW 18.5 mph 18.5 mph 70 % 0.0 in 0.0 W/m2 CLR
21:06 2.2 °F -2.7 °F 1020.5 in WNW 27.8 mph 27.8 mph 70 % 0.0 in 0.0 W/m2 CLR
21:11 2.2 °F -2.7 °F 1020.5 in WNW 20.4 mph 20.4 mph 70 % 0.0 in 0.0 W/m2 CLR
21:16 2.2 °F -2.5 °F 1020.5 in WNW 20.9 mph 20.9 mph 71 % 0.0 in 0.0 W/m2 CLR
21:21 2.2 °F -2.5 °F 1020.5 in NW 24.1 mph 24.1 mph 71 % 0.0 in 0.0 W/m2 CLR
21:26 2.2 °F -2.5 °F 1020.5 in NW 18.5 mph 18.5 mph 71 % 0.0 in 0.0 W/m2 CLR
21:31 2.2 °F -2.3 °F 1020.9 in WNW 18.5 mph 18.5 mph 72 % 0.0 in 0.0 W/m2 CLR
21:36 1.7 °F -2.8 °F 1020.9 in WNW 19.3 mph 19.3 mph 72 % 0.0 in 0.0 W/m2 CLR
21:41 1.7 °F -2.8 °F 1020.9 in West 18.5 mph 18.5 mph 72 % 0.0 in 0.0 W/m2 CLR
21:46 1.7 °F -2.8 °F 1020.9 in NW 19.3 mph 19.3 mph 72 % 0.0 in 0.0 W/m2 CLR
21:51 1.7 °F -2.7 °F 1020.9 in WNW 18.5 mph 18.5 mph 73 % 0.0 in 0.0 W/m2 CLR
21:56 1.7 °F -2.7 °F 1020.9 in WNW 18.5 mph 18.5 mph 73 % 0.0 in 0.0 W/m2 CLR
22:01 1.7 °F -2.7 °F 1020.9 in WNW 25.9 mph 25.9 mph 73 % 0.0 in 0.0 W/m2 CLR
22:06 1.7 °F -2.7 °F 1020.9 in WNW 20.4 mph 20.4 mph 73 % 0.0 in 0.0 W/m2 CLR
22:11 1.1 °F -3.2 °F 1020.9 in NW 18.5 mph 18.5 mph 73 % 0.0 in 0.0 W/m2 CLR
22:16 1.7 °F -2.7 °F 1020.9 in NW 24.1 mph 24.1 mph 73 % 0.0 in 0.0 W/m2 CLR
22:22 1.7 °F -2.5 °F 1020.9 in NW 22.2 mph 22.2 mph 74 % 0.0 in 0.0 W/m2 CLR
22:27 1.7 °F -2.5 °F 1020.9 in NW 20.4 mph 20.4 mph 74 % 0.0 in 0.0 W/m2 CLR
22:32 1.7 °F -2.5 °F 1021.2 in NW 20.4 mph 20.4 mph 74 % 0.0 in 0.0 W/m2 CLR
22:37 1.7 °F -2.5 °F 1021.2 in WNW 22.2 mph 22.2 mph 74 % 0.0 in 0.0 W/m2 CLR
22:42 1.7 °F -2.5 °F 1021.2 in WNW 24.1 mph 24.1 mph 74 % 0.0 in 0.0 W/m2 CLR
22:47 1.7 °F -2.5 °F 1020.9 in NW 20.4 mph 20.4 mph 74 % 0.0 in 0.0 W/m2 CLR
22:52 1.7 °F -2.5 °F 1020.9 in NW 20.4 mph 20.4 mph 74 % 0.0 in 0.0 W/m2 CLR
22:57 1.7 °F -2.3 °F 1020.9 in NNW 18.5 mph 18.5 mph 75 % 0.0 in 0.0 W/m2 CLR
23:02 1.7 °F -2.3 °F 1020.9 in NW 20.4 mph 20.4 mph 75 % 0.0 in 0.0 W/m2 CLR
23:07 1.7 °F -2.3 °F 1021.2 in WNW 24.1 mph 24.1 mph 75 % 0.0 in 0.0 W/m2 CLR
23:12 1.7 °F -2.3 °F 1020.9 in NW 22.2 mph 22.2 mph 75 % 0.0 in 0.0 W/m2 CLR
23:17 1.7 °F -2.3 °F 1021.2 in NW 22.2 mph 22.2 mph 75 % 0.0 in 0.0 W/m2 CLR
23:22 1.7 °F -2.3 °F 1021.2 in NW 22.2 mph 22.2 mph 75 % 0.0 in 0.0 W/m2 CLR
23:27 1.7 °F -2.5 °F 1021.2 in WNW 18.5 mph 18.5 mph 74 % 0.0 in 0.0 W/m2 CLR
23:32 1.7 °F -2.3 °F 1021.2 in NW 20.4 mph 20.4 mph 75 % 0.0 in 0.0 W/m2 CLR
23:37 1.7 °F -2.3 °F 1021.2 in NW 20.4 mph 20.4 mph 75 % 0.0 in 0.0 W/m2 CLR
23:42 1.7 °F -2.3 °F 1021.2 in NW 32.2 mph 32.2 mph 75 % 0.0 in 0.0 W/m2 CLR
23:47 1.7 °F -2.3 °F 1021.6 in NW 18.5 mph 18.5 mph 75 % 0.0 in 0.0 W/m2 CLR
23:52 1.7 °F -2.3 °F 1021.6 in NW 22.2 mph 22.2 mph 75 % 0.0 in 0.0 W/m2 CLR
23:57 1.7 °F -2.1 °F 1021.6 in NW 16.7 mph 16.7 mph 76 % 0.0 in 0.0 W/m2 CLR
Lo Temps de Massalio
Compliments of Weather Underground - 1.25 mb